Ana Sayfa
METAR-TAF:

METAR-TAF

Havaalanları :

Meriden-Markham Municipal Airport

Meriden, Connecticut, Amerika Birleşik Devletleri

Enlem: 41-30-35N, Boylam: 072-49-40W, yükseklik: 31 m

Güncel hava durumu gözlemi

Rapor saat 01:53 UTC de 50 dakika önce yapıldı.
Rüzgar kuzey/kuzeydoğudan 4 kt
Sıcaklık 6°C
Nem 65%
Basınç 1005 hPa
Görüş mesafesi: 16.1 km
1800 ft yükseklikte parçalı çok bulutlu
2600 ft yükseklikte çok bulutlu

METAR: KMMK 190153Z AUTO 02004KT 10SM BKN018 OVC026 06/00 A2968 RMK AO2 SLP052 T00560000

Saat: 21:43 (02:43 UTC)


TAF: eksik

4.000'den fazla havaalanı için hava durumu gözlemleri ve tahminleri (METAR ve TAF raporları).

Kullanılabilir istasyonlar harita üzerinde sarı ve kırmızı noktalarla gösterilir.

İstasyonun adını görmek için fareyi noktanın üzerinde gezdirin.

Sonrasında hava gözlem ve tahminlerini görmek için tıklayın.

Haritayı değiştirmek için: yaklaştırmak için siyah artı işaretli yeşil düğmeye ve uzaklaştırmak için de eksi işaretli düğmeye hızla tıklayın; bitişik haritalar için yeşil okları kullanın.


METAR-TAF: